ENEV

Harstad / Narvik , Evenes Airport

Evenes, Norway
METAR ENEV 191950Z 24009KT 200V280 9999 -RA FEW005 BKN033 08/07 Q0993 RMK WIND 1400FT 23017KT
Observed Flight Rules
Jun-19 @ 19:50 UTC (20 minutes ago) Visual Flight Rules
Wind Visibility Clouds Conditions
240° at 9 knots 10,000+ meters
  • Few at 500' AGL
  • Broken at 3,300' AGL
  • Light Rain
Temperatures Readings
Current 8°C / 46°F
Dewpoint 7°C / 45°F
Humidity 93%
Altimeter 29.32" Hg
Pressure 993 hPa
Elevation 26
METAR ENEV 191950Z 24009KT 200V280 9999 -RA FEW005 BKN033 08/07 Q0993 RMK WIND 1400FT 23017KT
Observed Flight Rules
Jun-19 @ 19:50 UTC
(20 minutes ago)
VFR
Wind Visibility
240° at 9 knots 10,000+ meters
Clouds
  • Few at 500' AGL
  • Broken at 3,300' AGL
Conditions
  • Light Rain
Temperature Dewpoint
8°C / 46°F 7°C / 45°F
Humidity Altimeter Pressure
93% 29.32" Hg 993 hPa